Terminal Aerodrome Forecast
Issued by NWS

Home | Current Version | Previous Version | Text Only | Print | Product List | Glossary On
Versions: 1 2 3 4 5 6 7 8 9 10 11 12 13 14 15 16 17
000
FTUS45 KVEF 281100
TAFDAG
TAF
KDAG 281138Z 2812/2912 24008KT P6SM VCSH SCT120 BKN140
     FM281800 31010KT P6SM SCT100 SCT140 BKN200
     FM290100 24013KT P6SM SCT140 BKN200=

USA.gov is the U.S. government's official web portal to all federal, state and local government web resources and services.